Time;durP1;ratioP1;P1;durP2;ratioP2;P2;SDS_P1;SDS_P2;PMS_P1;PMS_P2;Temp;Humidity;BMP_temperature;BMP_pressure;BME280_temperature;BME280_humidity;BME280_pressure;Samples;Min_cycle;Max_cycle;Signal;HPM_P1;HPM_P2
2022/10/02 00:01:54;;;;;;;7.60;1.77;;;;;;;;;;6131436;23;20026;-80
2022/10/02 00:04:36;;;;;;;6.60;1.40;;;;;;;;;;6157426;23;20026;-80
2022/10/02 00:07:04;;;;;;;10.05;1.83;;;;;;;;;;6156615;23;20040;-80
2022/10/02 00:09:36;;;;;;;10.93;1.70;;;;;;;;;;6131395;23;20018;-80
2022/10/02 00:12:07;;;;;;;11.63;1.73;;;;;;;;;;6130119;23;20367;-80
2022/10/02 00:14:36;;;;;;;9.25;1.90;;;;;;;;;;6131107;23;20034;-80
2022/10/02 00:17:02;;;;;;;11.73;1.77;;;;;;;;;;6157757;23;20022;-80
2022/10/02 00:19:29;;;;;;;10.43;2.42;;;;;;;;;;6131039;23;20030;-80
2022/10/02 00:21:58;;;;;;;6.97;1.52;;;;;;;;;;6130632;23;20033;-80
2022/10/02 00:24:27;;;;;;;13.65;2.08;;;;;;;;;;6157183;23;20081;-80
2022/10/02 00:27:01;;;;;;;9.52;1.60;;;;;;;;;;6129872;23;20026;-80
2022/10/02 00:29:37;;;;;;;9.25;1.77;;;;;;;;;;6129892;23;20036;-80
2022/10/02 00:32:15;;;;;;;6.00;1.50;;;;;;;;;;6131782;23;20037;-80
2022/10/02 00:34:50;;;;;;;7.28;1.50;;;;;;;;;;6130876;23;20041;-80
2022/10/02 00:37:27;;;;;;;9.55;1.42;;;;;;;;;;6157513;23;20061;-80
2022/10/02 00:40:12;;;;;;;4.97;1.17;;;;;;;;;;6129109;23;20022;-80
2022/10/02 00:43:11;;;;;;;6.10;1.70;;;;;;;;;;6130814;23;20471;-80
2022/10/02 00:45:56;;;;;;;6.60;1.38;;;;;;;;;;6090618;23;20037;-81
2022/10/02 00:48:31;;;;;;;7.35;1.65;;;;;;;;;;6154681;23;20040;-81
2022/10/02 00:51:13;;;;;;;6.05;1.65;;;;;;;;;;6153995;23;20029;-81
2022/10/02 00:53:53;;;;;;;10.00;1.70;;;;;;;;;;6128834;23;20031;-81
2022/10/02 00:56:45;;;;;;;7.75;2.03;;;;;;;;;;6128458;23;20030;-81
2022/10/02 00:59:32;;;;;;;9.45;2.30;;;;;;;;;;6095028;23;20029;-82
2022/10/02 01:02:07;;;;;;;10.18;2.00;;;;;;;;;;6095863;23;20026;-81
2022/10/02 01:04:35;;;;;;;7.82;1.55;;;;;;;;;;6156040;23;20030;-81
2022/10/02 01:07:03;;;;;;;11.15;2.67;;;;;;;;;;6176619;23;20030;-81
2022/10/02 01:09:29;;;;;;;7.35;2.05;;;;;;;;;;6183432;23;20030;-80
2022/10/02 01:11:56;;;;;;;13.55;2.90;;;;;;;;;;6184646;23;20029;-82
2022/10/02 01:14:32;;;;;;;13.05;2.40;;;;;;;;;;6185526;23;20026;-81
2022/10/02 01:16:59;;;;;;;12.27;2.90;;;;;;;;;;6183330;23;20046;-81
2022/10/02 01:19:30;;;;;;;12.27;2.70;;;;;;;;;;6183309;23;20025;-81
2022/10/02 01:22:02;;;;;;;14.05;3.30;;;;;;;;;;6183405;23;20033;-81
2022/10/02 01:24:33;;;;;;;12.90;2.55;;;;;;;;;;6184384;23;20040;-81
2022/10/02 01:26:59;;;;;;;15.80;3.45;;;;;;;;;;6186568;23;20033;-80
2022/10/02 01:29:25;;;;;;;12.23;2.78;;;;;;;;;;6188403;23;20032;-80
2022/10/02 01:31:52;;;;;;;11.40;2.78;;;;;;;;;;6187448;23;20029;-80
2022/10/02 01:34:18;;;;;;;16.25;3.33;;;;;;;;;;6185420;23;20025;-80
2022/10/02 01:36:44;;;;;;;16.85;3.42;;;;;;;;;;6186099;23;20037;-80
2022/10/02 01:39:11;;;;;;;11.43;3.25;;;;;;;;;;6186027;23;20037;-80
2022/10/02 01:41:40;;;;;;;13.50;3.13;;;;;;;;;;6186436;23;20036;-80
2022/10/02 01:44:08;;;;;;;16.90;3.85;;;;;;;;;;6185279;23;20017;-79
2022/10/02 01:46:37;;;;;;;18.48;3.58;;;;;;;;;;6184856;23;20873;-82
2022/10/02 01:49:16;;;;;;;18.77;4.23;;;;;;;;;;6184708;23;20030;-82
2022/10/02 01:52:00;;;;;;;18.00;4.10;;;;;;;;;;6186594;23;20067;-82
2022/10/02 01:54:27;;;;;;;14.90;3.88;;;;;;;;;;6186670;23;20113;-81
2022/10/02 01:57:12;;;;;;;21.75;4.95;;;;;;;;;;6186327;23;20036;-81
2022/10/02 01:59:57;;;;;;;15.05;4.65;;;;;;;;;;6186253;23;20032;-81
2022/10/02 02:02:38;;;;;;;26.20;4.55;;;;;;;;;;6186327;23;20036;-81
2022/10/02 02:05:20;;;;;;;27.30;5.45;;;;;;;;;;6182475;23;20084;-81
2022/10/02 02:08:05;;;;;;;25.23;5.18;;;;;;;;;;6156216;23;20475;-81
2022/10/02 02:10:32;;;;;;;22.00;4.88;;;;;;;;;;6155576;23;20379;-81
2022/10/02 02:13:01;;;;;;;25.35;5.40;;;;;;;;;;6156849;23;20034;-81
2022/10/02 02:15:29;;;;;;;24.65;5.28;;;;;;;;;;6130017;23;20025;-82
2022/10/02 02:18:05;;;;;;;25.23;5.25;;;;;;;;;;6157314;23;20133;-81
2022/10/02 02:20:35;;;;;;;26.25;6.25;;;;;;;;;;6130186;23;20081;-81
2022/10/02 02:23:11;;;;;;;25.30;5.18;;;;;;;;;;6128903;23;20033;-82
2022/10/02 02:25:39;;;;;;;37.67;5.95;;;;;;;;;;6130707;23;20033;-81
2022/10/02 02:28:07;;;;;;;25.75;6.43;;;;;;;;;;6157018;23;20033;-81
2022/10/02 02:30:35;;;;;;;28.50;5.45;;;;;;;;;;6130774;23;20383;-81
2022/10/02 02:33:08;;;;;;;24.98;5.65;;;;;;;;;;6130764;23;20522;-81
2022/10/02 02:35:36;;;;;;;33.05;5.18;;;;;;;;;;6131480;23;20031;-81
2022/10/02 02:38:07;;;;;;;33.03;5.65;;;;;;;;;;6155873;23;20026;-81
2022/10/02 02:40:36;;;;;;;32.50;5.53;;;;;;;;;;6129935;23;20028;-81
2022/10/02 02:43:04;;;;;;;31.15;4.93;;;;;;;;;;6130215;23;20525;-80
2022/10/02 02:45:33;;;;;;;25.35;4.45;;;;;;;;;;6130755;23;20041;-81
2022/10/02 02:48:03;;;;;;;21.80;3.80;;;;;;;;;;6156451;23;20038;-81
2022/10/02 02:50:35;;;;;;;25.60;4.45;;;;;;;;;;6156400;23;20033;-81
2022/10/02 02:53:05;;;;;;;23.70;4.90;;;;;;;;;;6155845;23;20034;-82
2022/10/02 02:55:37;;;;;;;21.38;4.32;;;;;;;;;;6130652;23;20026;-81
2022/10/02 02:58:36;;;;;;;23.15;4.88;;;;;;;;;;6131608;23;20030;-81
2022/10/02 03:01:02;;;;;;;20.90;4.53;;;;;;;;;;6151518;23;20017;-81
2022/10/02 03:03:29;;;;;;;23.77;4.22;;;;;;;;;;6131014;23;21192;-82
2022/10/02 03:06:00;;;;;;;21.63;4.15;;;;;;;;;;6150573;23;20033;-81
2022/10/02 03:08:28;;;;;;;26.90;3.97;;;;;;;;;;6186388;23;20039;-81
2022/10/02 03:10:58;;;;;;;24.27;3.90;;;;;;;;;;6185215;23;20029;-81
2022/10/02 03:13:43;;;;;;;26.88;4.13;;;;;;;;;;6185164;23;20041;-81
2022/10/02 03:16:28;;;;;;;22.73;3.95;;;;;;;;;;6184166;23;20029;-82
2022/10/02 03:18:57;;;;;;;15.95;3.13;;;;;;;;;;6184638;23;20032;-81
2022/10/02 03:21:45;;;;;;;20.02;3.15;;;;;;;;;;6186453;23;20018;-82
2022/10/02 03:24:30;;;;;;;20.00;4.07;;;;;;;;;;6186328;23;20065;-82
2022/10/02 03:27:15;;;;;;;12.38;3.20;;;;;;;;;;6186839;23;20055;-80
2022/10/02 03:29:50;;;;;;;22.80;3.78;;;;;;;;;;6183847;23;20029;-82
2022/10/02 03:32:17;;;;;;;16.35;3.13;;;;;;;;;;6184302;23;20569;-82
2022/10/02 03:34:43;;;;;;;28.08;4.22;;;;;;;;;;6186648;23;20033;-81
2022/10/02 03:37:10;;;;;;;25.05;4.15;;;;;;;;;;6185167;23;20033;-80
2022/10/02 03:39:42;;;;;;;30.08;4.20;;;;;;;;;;6185239;23;20025;-82
2022/10/02 03:42:12;;;;;;;20.17;3.15;;;;;;;;;;6185237;23;20010;-82
2022/10/02 03:44:38;;;;;;;31.67;3.95;;;;;;;;;;6185468;23;20032;-81
2022/10/02 03:47:04;;;;;;;27.15;4.78;;;;;;;;;;6186701;23;20723;-82
2022/10/02 03:49:31;;;;;;;23.08;4.28;;;;;;;;;;6186038;23;20017;-82
2022/10/02 03:51:57;;;;;;;25.30;4.18;;;;;;;;;;6184718;23;20030;-81
2022/10/02 03:54:25;;;;;;;26.40;3.70;;;;;;;;;;6186614;23;20033;-82
2022/10/02 03:56:53;;;;;;;21.20;4.30;;;;;;;;;;6184342;23;20485;-81
2022/10/02 03:59:34;;;;;;;21.98;4.00;;;;;;;;;;6184496;23;20100;-80
2022/10/02 04:02:03;;;;;;;26.85;4.03;;;;;;;;;;6184392;23;20374;-81
2022/10/02 04:04:41;;;;;;;22.08;3.22;;;;;;;;;;6182908;23;21179;-80
2022/10/02 04:07:13;;;;;;;21.02;4.00;;;;;;;;;;6158497;23;20022;-80
2022/10/02 04:09:45;;;;;;;30.23;3.95;;;;;;;;;;6156113;23;20026;-80
2022/10/02 04:12:13;;;;;;;32.22;3.92;;;;;;;;;;6130141;23;20026;-82
2022/10/02 04:14:53;;;;;;;25.73;4.05;;;;;;;;;;6154977;23;20034;-80
2022/10/02 04:17:24;;;;;;;24.00;3.53;;;;;;;;;;6130873;23;20022;-82
2022/10/02 04:19:56;;;;;;;23.83;4.20;;;;;;;;;;6156482;23;20025;-82
2022/10/02 04:22:44;;;;;;;26.77;4.38;;;;;;;;;;6155350;23;20056;-81
2022/10/02 04:25:16;;;;;;;24.73;3.47;;;;;;;;;;6130301;23;20538;-80
2022/10/02 04:27:46;;;;;;;18.15;3.50;;;;;;;;;;6157109;23;20030;-79
2022/10/02 04:30:17;;;;;;;29.23;4.97;;;;;;;;;;6130538;23;20030;-80
2022/10/02 04:32:43;;;;;;;26.20;3.88;;;;;;;;;;6157580;23;20033;-80
2022/10/02 04:35:14;;;;;;;18.25;3.60;;;;;;;;;;6130703;23;20602;-80
2022/10/02 04:37:43;;;;;;;23.10;3.67;;;;;;;;;;6131460;23;20021;-80
2022/10/02 04:40:19;;;;;;;21.40;3.40;;;;;;;;;;6131920;23;20046;-80
2022/10/02 04:42:48;;;;;;;14.43;3.28;;;;;;;;;;6157300;23;20014;-80
2022/10/02 04:45:17;;;;;;;26.15;4.97;;;;;;;;;;6156143;23;20018;-79
2022/10/02 04:47:44;;;;;;;19.75;3.40;;;;;;;;;;6157042;23;20150;-80
2022/10/02 04:50:13;;;;;;;21.25;4.03;;;;;;;;;;6130984;23;20030;-80
2022/10/02 04:52:45;;;;;;;25.08;3.45;;;;;;;;;;6130746;23;20471;-81
2022/10/02 04:55:30;;;;;;;19.83;3.20;;;;;;;;;;6130544;23;20018;-81
2022/10/02 04:58:15;;;;;;;15.98;2.70;;;;;;;;;;6156258;23;20501;-81
2022/10/02 05:00:46;;;;;;;21.63;2.92;;;;;;;;;;6156119;23;20018;-80
2022/10/02 05:03:25;;;;;;;14.50;2.72;;;;;;;;;;6156684;23;20030;-82
2022/10/02 05:06:04;;;;;;;22.85;2.60;;;;;;;;;;6148981;23;20026;-82
2022/10/02 05:08:31;;;;;;;22.45;3.45;;;;;;;;;;6185295;23;20037;-82
2022/10/02 05:11:20;;;;;;;17.83;3.03;;;;;;;;;;6183901;23;20037;-81
2022/10/02 05:14:06;;;;;;;24.75;3.53;;;;;;;;;;6185658;23;20034;-81
2022/10/02 05:16:48;;;;;;;19.10;3.17;;;;;;;;;;6184462;23;20033;-82
2022/10/02 05:19:33;;;;;;;17.85;3.53;;;;;;;;;;6186063;23;20033;-81
2022/10/02 05:22:13;;;;;;;19.25;2.90;;;;;;;;;;6183809;23;20026;-81
2022/10/02 05:24:47;;;;;;;20.45;3.83;;;;;;;;;;6184176;23;20022;-81
2022/10/02 05:27:13;;;;;;;31.10;4.28;;;;;;;;;;6184014;23;20029;-82
2022/10/02 05:29:46;;;;;;;17.40;3.47;;;;;;;;;;6184714;23;20026;-80
2022/10/02 05:32:19;;;;;;;34.55;4.40;;;;;;;;;;6185939;23;20034;-80
2022/10/02 05:34:48;;;;;;;32.42;4.97;;;;;;;;;;6187797;23;20025;-80
2022/10/02 05:37:26;;;;;;;27.25;4.93;;;;;;;;;;6187836;23;20021;-78
2022/10/02 05:40:00;;;;;;;22.05;4.38;;;;;;;;;;6188031;23;20016;-80
2022/10/02 05:42:26;;;;;;;26.92;5.03;;;;;;;;;;6187459;23;20037;-80
2022/10/02 05:44:55;;;;;;;31.83;5.45;;;;;;;;;;6186049;23;20036;-80
2022/10/02 05:47:24;;;;;;;28.75;5.65;;;;;;;;;;6186870;23;20056;-79
2022/10/02 05:49:58;;;;;;;30.73;5.87;;;;;;;;;;6188538;23;20029;-80
2022/10/02 05:52:28;;;;;;;25.25;4.82;;;;;;;;;;6189574;23;20042;-80
2022/10/02 05:55:17;;;;;;;21.53;5.40;;;;;;;;;;6190142;23;20025;-80
2022/10/02 05:57:50;;;;;;;22.42;5.32;;;;;;;;;;6189281;23;20237;-81
2022/10/02 06:00:19;;;;;;;23.90;4.80;;;;;;;;;;6188228;23;20038;-81
2022/10/02 06:03:12;;;;;;;26.10;6.13;;;;;;;;;;6190180;23;20749;-81
2022/10/02 06:05:47;;;;;;;38.00;6.18;;;;;;;;;;6154552;23;20471;-81
2022/10/02 06:08:15;;;;;;;32.42;6.18;;;;;;;;;;6188149;23;20033;-81
2022/10/02 06:10:47;;;;;;;28.77;6.43;;;;;;;;;;6187289;23;20013;-79
2022/10/02 06:13:36;;;;;;;30.55;7.40;;;;;;;;;;6187285;23;20013;-79
2022/10/02 06:16:02;;;;;;;33.58;7.88;;;;;;;;;;6188141;23;20021;-81
2022/10/02 06:18:30;;;;;;;32.63;6.45;;;;;;;;;;6187123;23;20013;-81
2022/10/02 06:21:01;;;;;;;28.88;6.63;;;;;;;;;;6188983;23;20033;-82
2022/10/02 06:23:34;;;;;;;28.30;7.28;;;;;;;;;;6187412;23;20833;-81
2022/10/02 06:26:09;;;;;;;33.05;6.72;;;;;;;;;;6187204;23;20026;-80
2022/10/02 06:28:50;;;;;;;26.65;6.82;;;;;;;;;;6187020;23;20033;-80
2022/10/02 06:31:34;;;;;;;30.35;6.57;;;;;;;;;;6187837;23;20104;-79
2022/10/02 06:34:01;;;;;;;25.38;6.28;;;;;;;;;;6188344;23;20017;-82
2022/10/02 06:36:28;;;;;;;22.27;5.93;;;;;;;;;;6186050;23;20033;-80
2022/10/02 06:39:09;;;;;;;26.50;6.68;;;;;;;;;;6185716;23;20021;-80
2022/10/02 06:41:46;;;;;;;24.58;6.13;;;;;;;;;;6187474;23;20014;-81
2022/10/02 06:44:12;;;;;;;24.35;5.20;;;;;;;;;;6189344;23;20033;-81
2022/10/02 06:46:58;;;;;;;28.60;5.10;;;;;;;;;;6188052;23;20046;-81
2022/10/02 06:49:40;;;;;;;19.10;4.55;;;;;;;;;;6187043;23;20733;-81
2022/10/02 06:52:30;;;;;;;29.35;4.90;;;;;;;;;;6185385;23;20025;-81
2022/10/02 06:55:30;;;;;;;25.50;5.18;;;;;;;;;;6184681;23;20037;-81
2022/10/02 06:58:02;;;;;;;21.17;4.80;;;;;;;;;;6185940;23;20033;-80
2022/10/02 07:00:31;;;;;;;28.17;5.07;;;;;;;;;;6185353;23;20025;-81
2022/10/02 07:02:58;;;;;;;29.88;5.68;;;;;;;;;;6187496;23;20061;-81
2022/10/02 07:05:43;;;;;;;24.80;5.32;;;;;;;;;;6184849;23;20025;-81
2022/10/02 07:08:29;;;;;;;21.85;4.60;;;;;;;;;;6185651;23;20025;-81
2022/10/02 07:11:00;;;;;;;19.95;4.03;;;;;;;;;;6187445;23;21143;-81
2022/10/02 07:13:35;;;;;;;25.40;5.75;;;;;;;;;;6187510;23;20541;-81
2022/10/02 07:16:07;;;;;;;20.42;3.60;;;;;;;;;;6185434;23;20081;-81
2022/10/02 07:18:34;;;;;;;19.35;3.22;;;;;;;;;;6186712;23;20025;-83
2022/10/02 07:21:08;;;;;;;19.83;4.07;;;;;;;;;;6185673;23;20025;-81
2022/10/02 07:23:43;;;;;;;20.50;3.47;;;;;;;;;;6185481;23;20141;-82
2022/10/02 07:26:12;;;;;;;26.20;4.28;;;;;;;;;;6185294;23;20028;-81
2022/10/02 07:28:43;;;;;;;18.00;3.42;;;;;;;;;;6185784;23;20509;-81
2022/10/02 07:31:30;;;;;;;16.83;3.33;;;;;;;;;;6184974;23;20477;-81
2022/10/02 07:34:19;;;;;;;18.80;3.28;;;;;;;;;;6186323;23;20025;-82
2022/10/02 07:37:11;;;;;;;24.20;3.53;;;;;;;;;;6185968;23;20026;-81
2022/10/02 07:39:57;;;;;;;16.15;2.88;;;;;;;;;;6185618;23;20462;-82
2022/10/02 07:42:30;;;;;;;14.60;3.67;;;;;;;;;;6185300;23;20034;-81
2022/10/02 07:45:01;;;;;;;13.57;3.67;;;;;;;;;;6185975;23;20037;-81
2022/10/02 07:47:37;;;;;;;17.63;3.30;;;;;;;;;;6186597;23;20132;-83
2022/10/02 07:50:16;;;;;;;24.15;3.10;;;;;;;;;;6186566;23;20467;-83
2022/10/02 07:52:53;;;;;;;17.42;2.90;;;;;;;;;;6185755;23;20030;-82
2022/10/02 07:55:20;;;;;;;16.27;2.70;;;;;;;;;;6187772;23;20033;-82
2022/10/02 07:57:48;;;;;;;19.20;2.63;;;;;;;;;;6184600;23;20029;-81
2022/10/02 08:00:16;;;;;;;16.42;2.85;;;;;;;;;;6185874;23;20029;-81
2022/10/02 08:02:49;;;;;;;17.30;3.28;;;;;;;;;;6187070;23;20029;-80
2022/10/02 08:05:17;;;;;;;13.57;3.17;;;;;;;;;;6180612;23;20018;-80
2022/10/02 08:07:44;;;;;;;13.93;3.13;;;;;;;;;;6130611;23;20416;-80
2022/10/02 08:10:13;;;;;;;11.52;2.33;;;;;;;;;;6155090;23;20026;-81
2022/10/02 08:12:42;;;;;;;14.20;2.30;;;;;;;;;;6156251;23;20060;-80
2022/10/02 08:15:14;;;;;;;12.20;2.33;;;;;;;;;;6130133;23;20025;-81
2022/10/02 08:17:44;;;;;;;13.43;3.10;;;;;;;;;;6130820;23;20022;-81
2022/10/02 08:20:30;;;;;;;13.82;2.70;;;;;;;;;;6156867;23;20022;-81
2022/10/02 08:23:06;;;;;;;9.90;2.28;;;;;;;;;;6155241;23;20034;-80
2022/10/02 08:25:37;;;;;;;17.40;2.30;;;;;;;;;;6156002;23;20115;-82
2022/10/02 08:28:07;;;;;;;14.73;3.05;;;;;;;;;;6130478;23;20029;-80
2022/10/02 08:30:34;;;;;;;13.82;2.20;;;;;;;;;;6130074;23;20349;-80
2022/10/02 08:33:05;;;;;;;18.73;3.10;;;;;;;;;;6156752;23;20447;-81
2022/10/02 08:35:31;;;;;;;;;;;;;;;;;;6131075;23;20033;-81
2022/10/02 08:38:01;;;;;;;16.60;2.88;;;;;;;;;;6155195;23;48156;-81
2022/10/02 08:40:49;;;;;;;16.52;2.78;;;;;;;;;;6130085;23;20026;-81
2022/10/02 08:43:18;;;;;;;;;;;;;;;;;;6118026;23;20034;-81
2022/10/02 08:46:05;;;;;;;14.73;2.60;;;;;;;;;;6154955;23;46999;-81
2022/10/02 08:48:41;;;;;;;13.07;2.22;;;;;;;;;;6128958;23;20026;-81
2022/10/02 08:51:07;;;;;;;15.07;2.65;;;;;;;;;;6155601;23;20057;-81
2022/10/02 08:53:37;;;;;;;13.75;2.58;;;;;;;;;;6156539;23;20085;-82
2022/10/02 08:56:12;;;;;;;12.82;2.08;;;;;;;;;;6154314;23;20033;-81
2022/10/02 08:59:09;;;;;;;13.73;2.45;;;;;;;;;;6129887;23;20033;-79
2022/10/02 09:01:39;;;;;;;13.30;2.95;;;;;;;;;;6129113;23;20506;-78
2022/10/02 09:04:27;;;;;;;12.98;2.47;;;;;;;;;;6155310;23;20085;-80
2022/10/02 09:07:18;;;;;;;12.63;2.40;;;;;;;;;;6155218;23;20089;-78
2022/10/02 09:10:14;;;;;;;16.58;2.55;;;;;;;;;;6155514;23;20106;-79
2022/10/02 09:13:10;;;;;;;15.35;2.00;;;;;;;;;;6129141;23;20018;-79
2022/10/02 09:15:45;;;;;;;11.32;2.20;;;;;;;;;;6128186;23;20026;-78
2022/10/02 09:18:18;;;;;;;11.63;2.45;;;;;;;;;;6154136;23;20026;-78
2022/10/02 09:21:16;;;;;;;11.70;2.33;;;;;;;;;;6153572;23;20018;-79
2022/10/02 09:24:02;;;;;;;13.70;2.75;;;;;;;;;;6155682;23;20541;-78
2022/10/02 09:26:39;;;;;;;10.75;2.05;;;;;;;;;;6155831;23;20034;-79
2022/10/02 09:29:09;;;;;;;18.15;2.22;;;;;;;;;;6129510;23;20073;-78
2022/10/02 09:31:40;;;;;;;11.00;1.88;;;;;;;;;;6130337;23;20487;-78
2022/10/02 09:34:07;;;;;;;12.88;2.38;;;;;;;;;;6130453;23;20022;-79
2022/10/02 09:36:38;;;;;;;11.98;2.05;;;;;;;;;;6129087;23;20030;-79
2022/10/02 09:39:11;;;;;;;12.43;2.20;;;;;;;;;;6128088;23;20163;-79
2022/10/02 09:41:39;;;;;;;13.30;2.38;;;;;;;;;;6154478;23;20022;-79
2022/10/02 09:44:27;;;;;;;14.15;3.00;;;;;;;;;;6155171;23;20420;-80
2022/10/02 09:46:53;;;;;;;9.85;2.50;;;;;;;;;;6128610;23;20022;-80
2022/10/02 09:49:34;;;;;;;12.43;2.65;;;;;;;;;;6130295;23;20036;-82
2022/10/02 09:52:04;;;;;;;14.75;2.28;;;;;;;;;;6129516;23;20034;-80
2022/10/02 09:54:39;;;;;;;13.27;2.70;;;;;;;;;;6129963;23;20030;-80
2022/10/02 09:57:10;;;;;;;12.65;2.10;;;;;;;;;;6130021;23;20475;-80
2022/10/02 09:59:43;;;;;;;17.83;2.33;;;;;;;;;;6154884;23;20525;-78
2022/10/02 10:02:18;;;;;;;9.93;1.95;;;;;;;;;;6129584;23;20077;-79
2022/10/02 10:05:20;;;;;;;16.95;2.65;;;;;;;;;;6155665;23;20034;-79
2022/10/02 10:08:01;;;;;;;12.57;1.98;;;;;;;;;;6140000;23;20415;-78
2022/10/02 10:10:54;;;;;;;13.05;2.40;;;;;;;;;;6155571;23;20367;-79
2022/10/02 10:13:21;;;;;;;12.07;2.05;;;;;;;;;;6154434;23;20041;-80
2022/10/02 10:16:02;;;;;;;8.90;1.92;;;;;;;;;;6155683;23;20026;-79
2022/10/02 10:18:43;;;;;;;13.35;2.00;;;;;;;;;;6152981;23;20030;-79
2022/10/02 10:21:26;;;;;;;14.65;2.60;;;;;;;;;;6155070;23;20105;-80
2022/10/02 10:24:01;;;;;;;12.43;2.13;;;;;;;;;;6153491;23;20026;-80
2022/10/02 10:26:38;;;;;;;15.30;2.00;;;;;;;;;;6152493;23;20034;-81
2022/10/02 10:29:08;;;;;;;16.73;2.38;;;;;;;;;;6153164;23;20025;-80
2022/10/02 10:31:40;;;;;;;10.10;2.63;;;;;;;;;;6151847;23;20037;-79
2022/10/02 10:34:16;;;;;;;14.50;2.72;;;;;;;;;;6153951;23;20034;-79
2022/10/02 10:39:38;;;;;;;15.27;2.50;;;;;;;;;;6155694;23;20069;-80
2022/10/02 10:42:19;;;;;;;9.73;1.98;;;;;;;;;;6153708;23;20360;-80
2022/10/02 10:44:53;;;;;;;12.77;2.53;;;;;;;;;;6152803;23;20758;-79
2022/10/02 10:47:29;;;;;;;19.88;2.15;;;;;;;;;;6152468;23;20467;-81
2022/10/02 10:50:02;;;;;;;12.75;2.50;;;;;;;;;;6152622;23;20029;-80
2022/10/02 10:52:34;;;;;;;15.35;2.42;;;;;;;;;;6152385;23;20030;-80
2022/10/02 10:55:00;;;;;;;13.57;2.65;;;;;;;;;;6154050;23;20057;-79
2022/10/02 10:57:31;;;;;;;9.07;1.75;;;;;;;;;;6154826;23;20036;-79
2022/10/02 11:00:13;;;;;;;10.80;1.83;;;;;;;;;;6153944;23;20029;-79
2022/10/02 11:02:55;;;;;;;8.35;1.75;;;;;;;;;;6152687;23;20485;-79
2022/10/02 11:05:27;;;;;;;12.25;1.77;;;;;;;;;;6154085;23;20453;-80
2022/10/02 11:07:54;;;;;;;9.40;1.88;;;;;;;;;;6128752;23;20779;-79
2022/10/02 11:10:27;;;;;;;9.50;1.80;;;;;;;;;;6128136;23;20022;-79
2022/10/02 11:13:00;;;;;;;10.98;1.90;;;;;;;;;;6154163;23;20033;-80
2022/10/02 11:15:42;;;;;;;10.68;1.83;;;;;;;;;;6128265;23;20034;-80
2022/10/02 11:18:29;;;;;;;10.32;1.85;;;;;;;;;;6154403;23;20026;-79
2022/10/02 11:21:25;;;;;;;9.20;2.47;;;;;;;;;;6128646;23;20018;-80
2022/10/02 11:23:54;;;;;;;8.50;2.03;;;;;;;;;;6096376;23;20014;-79
2022/10/02 11:26:24;;;;;;;9.57;1.52;;;;;;;;;;6154395;23;20029;-79
2022/10/02 11:28:51;;;;;;;12.43;2.28;;;;;;;;;;6128434;23;20041;-79
2022/10/02 11:31:17;;;;;;;8.10;1.95;;;;;;;;;;6127444;23;20034;-78
2022/10/02 11:33:47;;;;;;;11.80;2.38;;;;;;;;;;6127459;23;20026;-79
2022/10/02 11:36:40;;;;;;;11.65;2.08;;;;;;;;;;6153462;23;20684;-79
2022/10/02 11:39:06;;;;;;;12.27;1.92;;;;;;;;;;6152694;23;20029;-79
2022/10/02 11:41:52;;;;;;;7.57;1.95;;;;;;;;;;6152440;23;20104;-80
2022/10/02 11:44:21;;;;;;;11.43;2.20;;;;;;;;;;6151757;23;20033;-79
2022/10/02 11:47:17;;;;;;;10.18;2.40;;;;;;;;;;6152252;23;20014;-79
2022/10/02 11:50:01;;;;;;;7.47;2.25;;;;;;;;;;6153873;23;20034;-79
2022/10/02 11:52:46;;;;;;;15.02;2.58;;;;;;;;;;6153213;23;20022;-81
2022/10/02 11:55:21;;;;;;;12.25;2.08;;;;;;;;;;6127333;23;20036;-79
2022/10/02 11:57:51;;;;;;;13.02;2.30;;;;;;;;;;6125809;23;20066;-79
2022/10/02 12:00:37;;;;;;;9.57;2.17;;;;;;;;;;6126693;23;20018;-79
2022/10/02 12:03:15;;;;;;;9.57;2.58;;;;;;;;;;6128100;23;20028;-79
2022/10/02 12:06:12;;;;;;;15.15;2.42;;;;;;;;;;6141252;23;20030;-79
2022/10/02 12:08:45;;;;;;;12.07;2.78;;;;;;;;;;6164043;23;20017;-79
2022/10/02 12:11:20;;;;;;;9.30;2.17;;;;;;;;;;6183951;23;20021;-79
2022/10/02 12:13:58;;;;;;;15.82;2.42;;;;;;;;;;6185856;23;20032;-79
2022/10/02 12:16:32;;;;;;;13.05;2.42;;;;;;;;;;6187207;23;20029;-80
2022/10/02 12:18:59;;;;;;;12.50;2.20;;;;;;;;;;6185577;23;20034;-79
2022/10/02 12:26:57;;;;;;;12.40;2.45;;;;;;;;;;6187199;23;20854;-79
2022/10/02 12:27:29;;;;;;;13.13;2.10;;;;;;;;;;6186547;23;20030;-79
2022/10/02 12:30:05;;;;;;;11.20;2.28;;;;;;;;;;6187169;23;20025;-79
2022/10/02 12:32:44;;;;;;;11.88;2.13;;;;;;;;;;6186355;23;20029;-79
2022/10/02 12:35:16;;;;;;;11.45;2.03;;;;;;;;;;6187965;23;20025;-80
2022/10/02 12:37:55;;;;;;;12.50;2.40;;;;;;;;;;6186340;23;20029;-80
2022/10/02 12:40:42;;;;;;;21.83;2.25;;;;;;;;;;6185205;23;20038;-79
2022/10/02 12:43:16;;;;;;;9.23;1.75;;;;;;;;;;6187792;23;20453;-80
2022/10/02 12:45:52;;;;;;;9.77;2.00;;;;;;;;;;6184827;23;20030;-81
2022/10/02 12:48:25;;;;;;;8.63;1.88;;;;;;;;;;6186470;23;20034;-80
2022/10/02 12:51:10;;;;;;;6.25;1.58;;;;;;;;;;6185798;23;20022;-80
2022/10/02 12:53:48;;;;;;;10.98;2.05;;;;;;;;;;6185977;23;20029;-80
2022/10/02 12:56:21;;;;;;;12.93;2.47;;;;;;;;;;6187289;23;20025;-80
2022/10/02 12:58:57;;;;;;;10.57;2.08;;;;;;;;;;6187969;23;20417;-81
2022/10/02 13:01:29;;;;;;;14.93;2.15;;;;;;;;;;6187521;23;20030;-80
2022/10/02 13:04:26;;;;;;;17.40;2.25;;;;;;;;;;6187871;23;20033;-80
2022/10/02 13:07:04;;;;;;;15.73;2.60;;;;;;;;;;6108118;23;20030;-80
2022/10/02 13:09:30;;;;;;;12.07;1.80;;;;;;;;;;6187679;23;20033;-81
2022/10/02 13:12:16;;;;;;;7.57;2.17;;;;;;;;;;6187092;23;20521;-79
2022/10/02 13:14:51;;;;;;;10.00;2.33;;;;;;;;;;6189590;23;20486;-79
2022/10/02 13:17:24;;;;;;;13.20;1.88;;;;;;;;;;6188259;23;20037;-81
2022/10/02 13:19:59;;;;;;;13.05;2.40;;;;;;;;;;6186516;23;20072;-81
2022/10/02 13:22:35;;;;;;;8.23;1.42;;;;;;;;;;6188283;23;20545;-80
2022/10/02 13:25:25;;;;;;;7.05;1.40;;;;;;;;;;6187750;23;20845;-79
2022/10/02 13:28:00;;;;;;;5.63;1.45;;;;;;;;;;6188228;23;20036;-81
2022/10/02 13:30:32;;;;;;;6.80;1.70;;;;;;;;;;6188581;23;20029;-80
2022/10/02 13:33:13;;;;;;;8.00;1.60;;;;;;;;;;6189840;23;20072;-81
2022/10/02 13:35:40;;;;;;;11.90;1.63;;;;;;;;;;6187386;23;20017;-80
2022/10/02 13:38:19;;;;;;;10.40;1.95;;;;;;;;;;6188915;23;20112;-79
2022/10/02 13:41:06;;;;;;;8.25;1.58;;;;;;;;;;6187961;23;20033;-80
2022/10/02 13:43:47;;;;;;;7.55;1.80;;;;;;;;;;6189242;23;20030;-79
2022/10/02 13:46:37;;;;;;;10.10;1.63;;;;;;;;;;6189424;23;20052;-82
2022/10/02 13:49:27;;;;;;;9.95;1.90;;;;;;;;;;6175122;23;20025;-80
2022/10/02 13:52:06;;;;;;;10.13;2.08;;;;;;;;;;6186753;23;20088;-82
2022/10/02 13:54:50;;;;;;;8.70;1.80;;;;;;;;;;6189187;23;20348;-82
2022/10/02 13:57:32;;;;;;;13.10;1.52;;;;;;;;;;6187280;23;20030;-81
2022/10/02 14:00:08;;;;;;;9.27;1.83;;;;;;;;;;6187281;23;20037;-81
2022/10/02 14:02:38;;;;;;;9.48;1.88;;;;;;;;;;6188756;23;20029;-81
2022/10/02 14:05:11;;;;;;;9.85;1.35;;;;;;;;;;6183895;23;20216;-81
2022/10/02 14:07:48;;;;;;;6.40;1.35;;;;;;;;;;6132395;23;20030;-81
2022/10/02 14:10:27;;;;;;;10.93;1.48;;;;;;;;;;6132859;23;20042;-81
2022/10/02 14:13:06;;;;;;;9.73;1.92;;;;;;;;;;6132421;23;20026;-81
2022/10/02 14:15:42;;;;;;;9.25;1.70;;;;;;;;;;6132402;23;20049;-80
2022/10/02 14:18:20;;;;;;;11.95;2.22;;;;;;;;;;6132102;23;20105;-81
2022/10/02 14:21:07;;;;;;;9.57;1.92;;;;;;;;;;6158593;23;20557;-80
2022/10/02 14:23:36;;;;;;;9.07;2.00;;;;;;;;;;6158904;23;20026;-81
2022/10/02 14:26:18;;;;;;;9.02;1.75;;;;;;;;;;6132638;23;20022;-81
2022/10/02 14:28:47;;;;;;;7.55;1.58;;;;;;;;;;6132866;23;20030;-79
2022/10/02 14:31:23;;;;;;;10.75;1.98;;;;;;;;;;6158822;23;20076;-80
2022/10/02 14:34:08;;;;;;;8.70;1.70;;;;;;;;;;6158718;23;20038;-81
2022/10/02 14:36:43;;;;;;;8.13;1.67;;;;;;;;;;6132385;23;20068;-81
2022/10/02 14:39:13;;;;;;;9.65;1.70;;;;;;;;;;6159032;23;20061;-81
2022/10/02 14:41:59;;;;;;;13.07;2.05;;;;;;;;;;6131295;23;20041;-80
2022/10/02 14:44:27;;;;;;;12.95;2.15;;;;;;;;;;6158668;23;20026;-81
2022/10/02 14:47:05;;;;;;;13.23;1.98;;;;;;;;;;6131783;23;20037;-81
2022/10/02 14:49:40;;;;;;;7.80;1.75;;;;;;;;;;6157577;23;20798;-80
2022/10/02 14:52:25;;;;;;;11.38;2.50;;;;;;;;;;6131569;23;20025;-82
2022/10/02 14:54:52;;;;;;;14.52;2.97;;;;;;;;;;6131783;23;20033;-82
2022/10/02 14:57:27;;;;;;;13.15;2.60;;;;;;;;;;6132279;23;20030;-80
2022/10/02 14:59:53;;;;;;;10.57;2.17;;;;;;;;;;6157166;23;20018;-81
2022/10/02 15:02:39;;;;;;;14.23;2.72;;;;;;;;;;6131357;23;20030;-80
2022/10/02 15:05:16;;;;;;;15.68;3.67;;;;;;;;;;6129880;23;20033;-80
2022/10/02 15:07:43;;;;;;;12.00;2.45;;;;;;;;;;6156355;23;20030;-80
2022/10/02 15:10:15;;;;;;;10.05;2.58;;;;;;;;;;6130715;23;20037;-80
2022/10/02 15:12:45;;;;;;;15.40;2.78;;;;;;;;;;6156835;23;20034;-80
2022/10/02 15:15:23;;;;;;;13.18;1.80;;;;;;;;;;6154127;23;20026;-80
2022/10/02 15:17:56;;;;;;;10.27;2.00;;;;;;;;;;6130115;23;20030;-80
2022/10/02 15:20:25;;;;;;;10.95;1.80;;;;;;;;;;6156699;23;20874;-81
2022/10/02 15:22:58;;;;;;;11.05;1.70;;;;;;;;;;6156466;23;20030;-81
2022/10/02 15:25:42;;;;;;;12.38;2.00;;;;;;;;;;6128261;23;20033;-81
2022/10/02 15:28:27;;;;;;;12.68;2.50;;;;;;;;;;6131324;23;20064;-80